createdAt,value
2023-07-24T00:02:33.146Z,1.08
2023-07-24T00:05:46.548Z,1.08
2023-07-24T00:08:58.830Z,1.08
2023-07-24T00:12:11.204Z,0.0
2023-07-24T00:15:24.791Z,0.0
2023-07-24T00:18:38.639Z,0.0
2023-07-24T00:21:51.298Z,1.08
2023-07-24T00:25:04.370Z,1.08
2023-07-24T00:28:17.146Z,1.08
2023-07-24T00:31:29.809Z,1.08
2023-07-24T00:34:42.100Z,2.16
2023-07-24T00:37:54.542Z,2.16
2023-07-24T00:41:06.657Z,0.0
2023-07-24T00:44:18.835Z,0.0
2023-07-24T00:47:32.540Z,0.0
2023-07-24T00:50:45.147Z,0.0
2023-07-24T00:53:57.346Z,0.0
2023-07-24T00:57:09.533Z,0.0
2023-07-24T01:02:33.050Z,0.0
2023-07-24T01:05:45.947Z,0.0
2023-07-24T01:08:58.240Z,0.0
2023-07-24T01:12:11.134Z,0.0
2023-07-24T01:15:24.011Z,2.16
2023-07-24T01:18:37.996Z,2.16
2023-07-24T01:21:50.445Z,2.16
2023-07-24T01:25:03.009Z,2.16
2023-07-24T01:28:15.961Z,2.16
2023-07-24T01:31:28.719Z,0.0
2023-07-24T01:34:41.714Z,0.0
2023-07-24T01:37:54.204Z,1.08
2023-07-24T01:41:06.459Z,1.08
2023-07-24T01:44:18.879Z,2.16
2023-07-24T01:47:33.282Z,2.16
2023-07-24T01:50:45.879Z,2.16
2023-07-24T01:53:58.212Z,2.16
2023-07-24T01:57:11.114Z,0.0
2023-07-24T02:02:33.205Z,0.0
2023-07-24T02:05:46.641Z,0.0
2023-07-24T02:08:59.637Z,0.0
2023-07-24T02:12:12.695Z,0.0
2023-07-24T02:15:25.428Z,0.0
2023-07-24T02:18:39.223Z,0.0
2023-07-24T02:21:51.737Z,0.0
2023-07-24T02:25:04.066Z,0.0
2023-07-24T02:28:16.469Z,0.0
2023-07-24T02:31:29.181Z,0.0
2023-07-24T02:34:42.068Z,0.0
2023-07-24T02:37:54.690Z,0.0
2023-07-24T02:41:07.742Z,0.0
2023-07-24T02:44:20.265Z,0.0
2023-07-24T02:50:46.981Z,0.0
2023-07-24T02:53:59.256Z,0.0
2023-07-24T02:57:11.504Z,0.0
2023-07-24T03:02:34.164Z,0.0
2023-07-24T03:05:47.564Z,0.0
2023-07-24T03:09:00.395Z,0.0
2023-07-24T03:12:13.545Z,0.0
2023-07-24T03:15:26.320Z,0.0
2023-07-24T03:18:40.238Z,0.0
2023-07-24T03:21:52.999Z,0.0
2023-07-24T03:25:06.001Z,0.0
2023-07-24T03:28:18.823Z,0.0
2023-07-24T03:31:32.106Z,0.0
2023-07-24T03:34:45.623Z,0.0
2023-07-24T03:37:57.887Z,0.0
2023-07-24T03:41:10.731Z,0.0
2023-07-24T03:44:23.655Z,0.0
2023-07-24T03:47:38.683Z,0.0
2023-07-24T03:50:52.780Z,0.0
2023-07-24T03:54:06.628Z,0.0
2023-07-24T03:57:21.563Z,0.0
2023-07-24T04:02:33.375Z,0.0
2023-07-24T04:08:01.584Z,0.0
2023-07-24T04:11:13.186Z,0.0
2023-07-24T04:14:24.597Z,0.0
2023-07-24T04:17:40.517Z,0.0
2023-07-24T04:20:52.053Z,0.0
2023-07-24T04:24:03.908Z,0.0
2023-07-24T04:27:16.192Z,0.0
2023-07-24T04:30:27.226Z,0.0
2023-07-24T04:33:39.208Z,0.0
2023-07-24T04:36:49.977Z,0.0
2023-07-24T04:40:01.336Z,0.0
2023-07-24T04:43:12.360Z,0.0
2023-07-24T04:49:38.779Z,0.0
2023-07-24T04:52:52.710Z,0.0
2023-07-24T04:56:03.898Z,0.0
2023-07-24T04:59:15.206Z,0.0
2023-07-24T05:02:31.748Z,0.0
2023-07-24T05:05:46.510Z,0.0
2023-07-24T05:08:58.835Z,0.0
2023-07-24T05:12:10.711Z,0.0
2023-07-24T05:15:21.725Z,0.0
2023-07-24T05:18:34.011Z,0.0
2023-07-24T05:21:46.374Z,0.0
2023-07-24T05:24:56.906Z,0.0
2023-07-24T05:28:07.825Z,0.0
2023-07-24T05:31:19.090Z,0.0
2023-07-24T05:34:30.762Z,0.0
2023-07-24T05:37:45.437Z,0.0
2023-07-24T05:40:56.155Z,0.0
2023-07-24T05:44:07.090Z,0.0
2023-07-24T05:47:19.492Z,0.0
2023-07-24T05:50:31.857Z,0.0
2023-07-24T05:53:42.862Z,0.0
2023-07-24T05:56:54.015Z,0.0
2023-07-24T06:02:32.278Z,0.0
2023-07-24T06:05:44.589Z,0.0
2023-07-24T06:08:55.464Z,0.0
2023-07-24T06:12:06.314Z,0.0
2023-07-24T06:15:17.499Z,0.0
2023-07-24T06:18:29.593Z,0.0
2023-07-24T06:21:40.369Z,0.0
2023-07-24T06:24:51.034Z,0.0
2023-07-24T06:28:02.347Z,0.0
2023-07-24T06:31:30.940Z,0.0
2023-07-24T06:34:41.964Z,0.0
2023-07-24T06:38:16.502Z,0.0
2023-07-24T06:41:27.127Z,0.0
2023-07-24T06:44:37.660Z,0.0
2023-07-24T06:47:48.878Z,0.0
2023-07-24T06:51:00.033Z,0.0
2023-07-24T06:54:11.398Z,0.0
2023-07-24T06:57:23.843Z,0.0
2023-07-24T07:02:31.611Z,0.0
2023-07-24T07:05:43.102Z,0.0
2023-07-24T07:08:57.717Z,0.0
2023-07-24T07:12:08.221Z,0.0
2023-07-24T07:15:21.941Z,0.0
2023-07-24T07:18:33.556Z,0.0
2023-07-24T07:21:44.183Z,0.0
2023-07-24T07:24:58.118Z,0.0
2023-07-24T07:28:08.963Z,0.0
2023-07-24T07:31:20.719Z,0.0
2023-07-24T07:34:32.108Z,0.0
2023-07-24T07:37:43.307Z,0.0
2023-07-24T07:40:54.083Z,0.0
2023-07-24T07:44:28.508Z,0.0
2023-07-24T07:47:40.208Z,0.0
2023-07-24T07:50:53.710Z,2.16
2023-07-24T07:54:04.966Z,2.16
2023-07-24T07:57:18.887Z,2.16
2023-07-24T08:02:32.988Z,6.48
2023-07-24T08:05:46.549Z,6.48
2023-07-24T08:08:57.602Z,6.48
2023-07-24T08:12:09.035Z,4.32
2023-07-24T08:15:20.434Z,4.32
2023-07-24T08:18:34.134Z,5.4
2023-07-24T08:21:46.217Z,5.4
2023-07-24T08:24:59.123Z,6.48
2023-07-24T08:28:17.635Z,6.48
2023-07-24T08:31:29.653Z,7.56
2023-07-24T08:34:41.455Z,7.56
2023-07-24T08:37:51.995Z,7.56
2023-07-24T08:41:03.367Z,7.56
2023-07-24T08:44:17.468Z,7.56
2023-07-24T08:47:29.505Z,3.24
2023-07-24T08:50:40.706Z,3.24
2023-07-24T08:53:53.130Z,4.32
2023-07-24T08:57:04.899Z,4.32
2023-07-24T09:02:31.537Z,5.4
2023-07-24T09:05:44.163Z,5.4
2023-07-24T09:08:54.652Z,6.48
2023-07-24T09:12:08.725Z,6.48
2023-07-24T09:19:11.586Z,6.48
2023-07-24T09:23:20.740Z,9.72
2023-07-24T09:26:35.772Z,9.72
2023-07-24T09:29:53.581Z,9.72
2023-07-24T09:33:05.340Z,9.72
2023-07-24T09:36:19.038Z,7.56
2023-07-24T09:39:31.047Z,7.56
2023-07-24T09:43:37.948Z,8.64
2023-07-24T09:47:55.390Z,8.64
2023-07-24T09:52:03.175Z,5.4
2023-07-24T09:55:16.384Z,4.32
2023-07-24T09:59:12.649Z,4.32
2023-07-24T10:02:33.651Z,4.32
2023-07-24T10:05:46.240Z,4.32
2023-07-24T10:08:57.096Z,4.32
2023-07-24T10:12:08.566Z,6.48
2023-07-24T10:15:19.803Z,6.48
2023-07-24T10:18:37.489Z,6.48
2023-07-24T10:21:49.291Z,6.48
2023-07-24T10:25:00.795Z,5.4
2023-07-24T10:28:13.029Z,5.4
2023-07-24T10:31:48.269Z,6.48
2023-07-24T10:35:05.615Z,6.48
2023-07-24T10:38:16.844Z,4.32
2023-07-24T10:41:29.325Z,4.32
2023-07-24T10:44:42.538Z,2.16
2023-07-24T10:47:53.743Z,2.16
2023-07-24T10:51:06.944Z,2.16
2023-07-24T10:54:17.906Z,3.24
2023-07-24T10:57:29.181Z,3.24
2023-07-24T11:02:33.784Z,5.4
2023-07-24T11:05:45.269Z,1.08
2023-07-24T11:08:56.608Z,1.08
2023-07-24T11:12:11.997Z,1.08
2023-07-24T11:15:23.136Z,3.24
2023-07-24T11:18:58.886Z,3.24
2023-07-24T11:22:10.332Z,4.32
2023-07-24T11:25:22.084Z,4.32
2023-07-24T11:28:34.037Z,4.32
2023-07-24T11:31:46.297Z,4.32
2023-07-24T11:34:57.758Z,5.4
2023-07-24T11:38:08.617Z,5.4
2023-07-24T11:41:22.784Z,4.32
2023-07-24T11:44:34.622Z,4.32
2023-07-24T11:47:47.211Z,4.32
2023-07-24T11:50:58.602Z,4.32
2023-07-24T11:54:10.072Z,4.32
2023-07-24T11:57:21.028Z,3.24
2023-07-24T12:02:35.895Z,4.32
2023-07-24T12:05:50.913Z,4.32
2023-07-24T12:09:04.330Z,2.16
2023-07-24T12:12:16.730Z,2.16
2023-07-24T12:15:31.215Z,2.16
2023-07-24T12:18:43.048Z,4.32
2023-07-24T12:21:54.619Z,4.32
2023-07-24T12:25:06.020Z,4.32
2023-07-24T12:28:16.786Z,4.32
2023-07-24T12:31:28.759Z,4.32
2023-07-24T12:34:41.886Z,4.32
2023-07-24T12:37:53.336Z,3.24
2023-07-24T12:41:04.725Z,3.24
2023-07-24T12:44:15.707Z,6.48
2023-07-24T12:47:27.538Z,6.48
2023-07-24T12:50:39.413Z,6.48
2023-07-24T12:54:54.816Z,7.56
2023-07-24T12:58:12.259Z,4.32
2023-07-24T13:02:32.826Z,4.32
2023-07-24T13:05:45.358Z,5.4
2023-07-24T13:08:56.990Z,5.4
2023-07-24T13:12:09.820Z,5.4
2023-07-24T13:15:20.631Z,5.4
2023-07-24T13:18:45.955Z,5.4
2023-07-24T13:21:57.727Z,3.24
2023-07-24T13:25:10.740Z,3.24
2023-07-24T13:28:24.166Z,2.16
2023-07-24T13:31:39.996Z,2.16
2023-07-24T13:34:52.119Z,6.48
2023-07-24T13:38:04.106Z,6.48
2023-07-24T13:41:17.244Z,5.4
2023-07-24T13:44:29.724Z,5.4
2023-07-24T13:50:57.438Z,4.32
2023-07-24T13:54:09.668Z,4.32
2023-07-24T13:57:20.802Z,6.48
2023-07-24T14:02:33.623Z,2.16
2023-07-24T14:05:51.195Z,2.16
2023-07-24T14:09:02.374Z,5.4
2023-07-24T14:12:14.026Z,5.4
2023-07-24T14:15:26.169Z,2.16
2023-07-24T14:18:40.487Z,2.16
2023-07-24T14:21:52.466Z,2.16
2023-07-24T14:25:03.514Z,0.0
2023-07-24T14:28:14.898Z,0.0
2023-07-24T14:31:27.982Z,0.0
2023-07-24T14:34:43.890Z,0.0
2023-07-24T14:37:55.975Z,0.0
2023-07-24T14:41:08.021Z,0.0
2023-07-24T14:44:24.371Z,0.0
2023-07-24T14:47:36.326Z,0.0
2023-07-24T14:50:48.759Z,0.0
2023-07-24T14:54:00.493Z,0.0
2023-07-24T14:57:32.270Z,1.08
2023-07-24T15:02:32.913Z,1.08
2023-07-24T15:05:44.901Z,1.08
2023-07-24T15:08:56.598Z,1.08
2023-07-24T15:12:07.934Z,1.08
2023-07-24T15:15:19.516Z,1.08
2023-07-24T15:18:33.659Z,0.0
2023-07-24T15:21:45.323Z,0.0
2023-07-24T15:24:59.412Z,0.0
2023-07-24T15:28:10.861Z,0.0
2023-07-24T15:31:23.879Z,0.0
2023-07-24T15:34:38.990Z,0.0
2023-07-24T15:37:51.249Z,0.0
2023-07-24T15:41:04.469Z,0.0
2023-07-24T15:44:15.277Z,0.0
2023-07-24T15:47:30.385Z,1.08
2023-07-24T15:50:46.659Z,1.08
2023-07-24T15:54:00.437Z,4.32
2023-07-24T15:57:11.691Z,4.32
2023-07-24T16:02:33.630Z,4.32
2023-07-24T16:08:02.166Z,5.4
2023-07-24T16:11:16.048Z,5.4
2023-07-24T16:14:29.155Z,7.56
2023-07-24T16:18:12.514Z,7.56
2023-07-24T16:21:26.048Z,7.56
2023-07-24T16:24:39.183Z,7.56
2023-07-24T16:27:51.439Z,7.56
2023-07-24T16:31:05.156Z,6.48
2023-07-24T16:34:40.498Z,6.48
2023-07-24T16:37:52.438Z,6.48
2023-07-24T16:41:10.454Z,6.48
2023-07-24T16:44:39.358Z,10.8
2023-07-24T16:48:36.367Z,10.8
2023-07-24T16:51:48.173Z,7.56
2023-07-24T16:55:00.297Z,7.56
2023-07-24T16:58:12.084Z,5.4
2023-07-24T17:02:33.571Z,5.4
2023-07-24T17:05:50.275Z,5.4
2023-07-24T17:09:02.010Z,5.4
2023-07-24T17:12:16.399Z,4.32
2023-07-24T17:15:28.342Z,4.32
2023-07-24T17:18:41.478Z,7.56
2023-07-24T17:21:57.091Z,7.56
2023-07-24T17:25:09.768Z,7.56
2023-07-24T17:28:22.198Z,7.56
2023-07-24T17:31:34.960Z,7.56
2023-07-24T17:34:47.314Z,6.48
2023-07-24T17:38:09.474Z,6.48
2023-07-24T17:41:21.229Z,5.4
2023-07-24T17:44:34.378Z,5.4
2023-07-24T17:47:47.364Z,3.24
2023-07-24T17:51:21.464Z,3.24
2023-07-24T17:54:33.975Z,3.24
2023-07-24T17:57:48.882Z,3.24
2023-07-24T18:02:32.634Z,3.24
2023-07-24T18:05:45.767Z,3.24
2023-07-24T18:08:59.374Z,3.24
2023-07-24T18:12:15.574Z,3.24
2023-07-24T18:15:27.112Z,0.0
2023-07-24T18:18:39.414Z,0.0
2023-07-24T18:21:56.727Z,1.08
2023-07-24T18:25:08.670Z,1.08
2023-07-24T18:28:20.672Z,2.16
2023-07-24T18:31:32.691Z,2.16
2023-07-24T18:34:45.971Z,2.16
2023-07-24T18:38:00.434Z,3.24
2023-07-24T18:41:12.234Z,3.24
2023-07-24T18:44:26.137Z,2.16
2023-07-24T18:47:38.471Z,2.16
2023-07-24T18:50:54.376Z,0.0
2023-07-24T18:54:05.902Z,0.0
2023-07-24T18:57:21.241Z,1.08
2023-07-24T19:02:33.265Z,1.08
2023-07-24T19:05:46.131Z,1.08
2023-07-24T19:08:58.770Z,1.08
2023-07-24T19:12:10.974Z,4.32
2023-07-24T19:15:26.025Z,4.32
2023-07-24T19:18:38.191Z,4.32
2023-07-24T19:21:49.781Z,4.32
2023-07-24T19:25:01.860Z,1.08
2023-07-24T19:28:13.737Z,1.08
2023-07-24T19:31:25.798Z,1.08
2023-07-24T19:34:43.176Z,1.08
2023-07-24T19:37:54.937Z,1.08
2023-07-24T19:41:06.302Z,3.24
2023-07-24T19:44:20.465Z,3.24
2023-07-24T19:47:32.642Z,3.24
2023-07-24T19:50:45.451Z,3.24
2023-07-24T19:53:57.162Z,1.08
2023-07-24T19:57:09.669Z,1.08
2023-07-24T20:05:50.278Z,3.24
2023-07-24T20:09:07.008Z,0.0
2023-07-24T20:12:18.948Z,0.0
2023-07-24T20:15:30.491Z,2.16
2023-07-24T20:18:43.068Z,2.16
2023-07-24T20:21:54.771Z,1.08
2023-07-24T20:25:06.950Z,1.08
2023-07-24T20:28:18.488Z,0.0
2023-07-24T20:31:33.402Z,0.0
2023-07-24T20:34:46.260Z,0.0
2023-07-24T20:37:57.490Z,0.0
2023-07-24T20:41:09.074Z,0.0
2023-07-24T20:44:20.581Z,0.0
2023-07-24T20:47:32.653Z,0.0
2023-07-24T20:50:45.913Z,0.0
2023-07-24T20:53:57.584Z,0.0
2023-07-24T20:57:09.183Z,0.0
2023-07-24T21:02:33.630Z,0.0
2023-07-24T21:05:49.403Z,0.0
2023-07-24T21:09:00.750Z,0.0
2023-07-24T21:12:12.397Z,0.0
2023-07-24T21:15:23.682Z,0.0
2023-07-24T21:18:36.004Z,0.0
2023-07-24T21:21:50.370Z,0.0
2023-07-24T21:25:01.846Z,0.0
2023-07-24T21:28:13.091Z,0.0
2023-07-24T21:31:25.024Z,0.0
2023-07-24T21:34:37.151Z,0.0
2023-07-24T21:37:48.419Z,0.0
2023-07-24T21:40:59.816Z,0.0
2023-07-24T21:44:10.625Z,0.0
2023-07-24T21:47:22.573Z,0.0
2023-07-24T21:53:49.037Z,0.0
2023-07-24T21:57:00.658Z,0.0
2023-07-24T22:02:35.450Z,0.0
2023-07-24T22:05:48.661Z,0.0
2023-07-24T22:09:02.199Z,0.0
2023-07-24T22:12:13.449Z,0.0
2023-07-24T22:15:25.509Z,0.0
2023-07-24T22:18:38.375Z,0.0
2023-07-24T22:21:57.600Z,0.0
2023-07-24T22:25:09.832Z,0.0
2023-07-24T22:28:21.622Z,0.0
2023-07-24T22:31:33.708Z,0.0
2023-07-24T22:34:46.422Z,0.0
2023-07-24T22:37:57.692Z,0.0
2023-07-24T22:41:09.633Z,0.0
2023-07-24T22:44:21.792Z,0.0
2023-07-24T22:47:34.795Z,0.0
2023-07-24T22:50:47.193Z,0.0
2023-07-24T22:53:58.802Z,0.0
2023-07-24T22:57:10.428Z,0.0
2023-07-24T23:02:33.939Z,0.0
2023-07-24T23:05:46.410Z,0.0
2023-07-24T23:08:57.949Z,0.0
2023-07-24T23:12:11.013Z,0.0
2023-07-24T23:15:22.009Z,0.0
2023-07-24T23:18:34.719Z,0.0
2023-07-24T23:21:46.239Z,0.0
2023-07-24T23:24:57.775Z,0.0
2023-07-24T23:28:09.996Z,0.0
2023-07-24T23:31:22.105Z,0.0
2023-07-24T23:34:34.665Z,0.0
2023-07-24T23:37:45.720Z,0.0
2023-07-24T23:40:57.364Z,0.0
2023-07-24T23:44:09.371Z,0.0
2023-07-24T23:47:21.616Z,0.0
2023-07-24T23:50:33.150Z,0.0
2023-07-24T23:53:47.659Z,0.0
2023-07-24T23:56:59.356Z,0.0
